sensor_id;sensor_type;location;lat;lon;timestamp;P1;durP1;ratioP1;P2;durP2;ratioP2
19782;SDS011;10051;40.294;-3.754;2023-01-01T00:01:21;69.07;;;28.38;;
19782;SDS011;10051;40.294;-3.754;2023-01-01T00:03:50;72.90;;;32.20;;
19782;SDS011;10051;40.294;-3.754;2023-01-01T00:06:16;79.20;;;34.17;;
19782;SDS011;10051;40.294;-3.754;2023-01-01T00:08:42;64.05;;;31.00;;
19782;SDS011;10051;40.294;-3.754;2023-01-01T00:11:08;61.67;;;28.52;;
19782;SDS011;10051;40.294;-3.754;2023-01-01T00:13:35;62.47;;;26.67;;
19782;SDS011;10051;40.294;-3.754;2023-01-01T00:16:03;59.70;;;24.50;;
19782;SDS011;10051;40.294;-3.754;2023-01-01T00:18:32;56.38;;;24.42;;
19782;SDS011;10051;40.294;-3.754;2023-01-01T00:21:04;56.20;;;24.90;;
19782;SDS011;10051;40.294;-3.754;2023-01-01T00:23:31;48.17;;;23.77;;
19782;SDS011;10051;40.294;-3.754;2023-01-01T00:25:57;47.05;;;23.42;;
19782;SDS011;10051;40.294;-3.754;2023-01-01T00:28:23;45.08;;;22.33;;
19782;SDS011;10051;40.294;-3.754;2023-01-01T00:30:49;55.58;;;22.60;;
19782;SDS011;10051;40.294;-3.754;2023-01-01T00:33:15;57.10;;;23.48;;
19782;SDS011;10051;40.294;-3.754;2023-01-01T00:35:40;50.95;;;24.50;;
19782;SDS011;10051;40.294;-3.754;2023-01-01T00:38:06;57.88;;;25.35;;
19782;SDS011;10051;40.294;-3.754;2023-01-01T00:40:31;64.57;;;25.65;;
19782;SDS011;10051;40.294;-3.754;2023-01-01T00:42:57;63.08;;;30.05;;
19782;SDS011;10051;40.294;-3.754;2023-01-01T00:45:26;63.83;;;27.00;;
19782;SDS011;10051;40.294;-3.754;2023-01-01T00:47:52;62.53;;;28.15;;
19782;SDS011;10051;40.294;-3.754;2023-01-01T00:50:19;63.35;;;29.08;;
19782;SDS011;10051;40.294;-3.754;2023-01-01T00:52:46;64.13;;;27.38;;
19782;SDS011;10051;40.294;-3.754;2023-01-01T00:55:13;61.33;;;26.70;;
19782;SDS011;10051;40.294;-3.754;2023-01-01T00:57:39;64.95;;;26.83;;
19782;SDS011;10051;40.294;-3.754;2023-01-01T01:00:05;58.45;;;26.63;;
19782;SDS011;10051;40.294;-3.754;2023-01-01T01:02:31;61.70;;;27.35;;
19782;SDS011;10051;40.294;-3.754;2023-01-01T01:04:57;52.60;;;24.60;;
19782;SDS011;10051;40.294;-3.754;2023-01-01T01:07:22;56.75;;;26.08;;
19782;SDS011;10051;40.294;-3.754;2023-01-01T01:09:48;51.53;;;25.10;;
19782;SDS011;10051;40.294;-3.754;2023-01-01T01:12:14;53.60;;;25.42;;
19782;SDS011;10051;40.294;-3.754;2023-01-01T01:14:39;53.50;;;25.40;;
19782;SDS011;10051;40.294;-3.754;2023-01-01T01:17:05;54.03;;;25.13;;
19782;SDS011;10051;40.294;-3.754;2023-01-01T01:19:30;54.85;;;24.88;;
19782;SDS011;10051;40.294;-3.754;2023-01-01T01:21:56;58.50;;;26.10;;
19782;SDS011;10051;40.294;-3.754;2023-01-01T01:24:21;57.00;;;27.35;;
19782;SDS011;10051;40.294;-3.754;2023-01-01T01:26:47;59.28;;;27.02;;
19782;SDS011;10051;40.294;-3.754;2023-01-01T01:29:13;55.78;;;26.35;;
19782;SDS011;10051;40.294;-3.754;2023-01-01T01:31:38;52.10;;;24.88;;
19782;SDS011;10051;40.294;-3.754;2023-01-01T01:34:04;49.58;;;22.98;;
19782;SDS011;10051;40.294;-3.754;2023-01-01T01:36:29;46.42;;;21.80;;
19782;SDS011;10051;40.294;-3.754;2023-01-01T01:38:55;42.22;;;21.27;;
19782;SDS011;10051;40.294;-3.754;2023-01-01T01:41:22;42.25;;;20.85;;
19782;SDS011;10051;40.294;-3.754;2023-01-01T01:48:55;40.85;;;17.75;;
19782;SDS011;10051;40.294;-3.754;2023-01-01T01:51:33;44.70;;;16.85;;
19782;SDS011;10051;40.294;-3.754;2023-01-01T01:54:03;36.00;;;16.45;;
19782;SDS011;10051;40.294;-3.754;2023-01-01T01:56:36;36.42;;;15.73;;
19782;SDS011;10051;40.294;-3.754;2023-01-01T01:59:16;31.60;;;13.70;;
19782;SDS011;10051;40.294;-3.754;2023-01-01T02:01:44;34.42;;;13.43;;
19782;SDS011;10051;40.294;-3.754;2023-01-01T02:04:10;29.38;;;13.18;;
19782;SDS011;10051;40.294;-3.754;2023-01-01T02:06:39;30.30;;;13.75;;
19782;SDS011;10051;40.294;-3.754;2023-01-01T02:09:05;32.20;;;14.85;;
19782;SDS011;10051;40.294;-3.754;2023-01-01T02:11:32;32.47;;;14.15;;
19782;SDS011;10051;40.294;-3.754;2023-01-01T02:13:59;30.15;;;13.20;;
19782;SDS011;10051;40.294;-3.754;2023-01-01T02:19:06;33.17;;;13.88;;
19782;SDS011;10051;40.294;-3.754;2023-01-01T02:21:55;33.10;;;14.30;;
19782;SDS011;10051;40.294;-3.754;2023-01-01T02:30:20;48.08;;;21.27;;
19782;SDS011;10051;40.294;-3.754;2023-01-01T02:32:50;50.20;;;21.67;;
19782;SDS011;10051;40.294;-3.754;2023-01-01T02:35:28;40.78;;;18.92;;
19782;SDS011;10051;40.294;-3.754;2023-01-01T02:38:08;43.40;;;17.52;;
19782;SDS011;10051;40.294;-3.754;2023-01-01T02:40:40;38.92;;;16.98;;
19782;SDS011;10051;40.294;-3.754;2023-01-01T02:43:09;31.25;;;13.93;;
19782;SDS011;10051;40.294;-3.754;2023-01-01T02:45:34;37.88;;;15.98;;
19782;SDS011;10051;40.294;-3.754;2023-01-01T02:48:34;33.38;;;14.88;;
19782;SDS011;10051;40.294;-3.754;2023-01-01T02:51:04;31.13;;;14.43;;
19782;SDS011;10051;40.294;-3.754;2023-01-01T02:53:47;41.17;;;16.25;;
19782;SDS011;10051;40.294;-3.754;2023-01-01T02:56:39;37.00;;;15.82;;
19782;SDS011;10051;40.294;-3.754;2023-01-01T03:07:58;32.33;;;14.32;;
19782;SDS011;10051;40.294;-3.754;2023-01-01T03:10:44;34.15;;;14.77;;
19782;SDS011;10051;40.294;-3.754;2023-01-01T03:16:30;32.88;;;14.50;;
19782;SDS011;10051;40.294;-3.754;2023-01-01T03:19:08;34.42;;;14.57;;
19782;SDS011;10051;40.294;-3.754;2023-01-01T03:24:17;38.83;;;14.27;;
19782;SDS011;10051;40.294;-3.754;2023-01-01T03:29:39;26.65;;;13.95;;
19782;SDS011;10051;40.294;-3.754;2023-01-01T03:32:08;31.65;;;13.43;;
19782;SDS011;10051;40.294;-3.754;2023-01-01T03:34:39;29.90;;;12.63;;
19782;SDS011;10051;40.294;-3.754;2023-01-01T03:37:09;31.17;;;12.50;;
19782;SDS011;10051;40.294;-3.754;2023-01-01T03:39:41;32.13;;;12.63;;
19782;SDS011;10051;40.294;-3.754;2023-01-01T03:44:44;33.97;;;12.15;;
19782;SDS011;10051;40.294;-3.754;2023-01-01T03:47:13;29.33;;;12.10;;
19782;SDS011;10051;40.294;-3.754;2023-01-01T03:49:40;27.50;;;12.55;;
19782;SDS011;10051;40.294;-3.754;2023-01-01T04:00:44;26.73;;;10.23;;
19782;SDS011;10051;40.294;-3.754;2023-01-01T04:03:16;23.42;;;9.32;;
19782;SDS011;10051;40.294;-3.754;2023-01-01T04:05:46;24.27;;;9.88;;
19782;SDS011;10051;40.294;-3.754;2023-01-01T04:08:12;27.38;;;10.30;;
19782;SDS011;10051;40.294;-3.754;2023-01-01T04:10:44;22.33;;;10.43;;
19782;SDS011;10051;40.294;-3.754;2023-01-01T04:13:13;23.33;;;9.60;;
19782;SDS011;10051;40.294;-3.754;2023-01-01T04:15:39;24.42;;;9.48;;
19782;SDS011;10051;40.294;-3.754;2023-01-01T04:18:05;22.27;;;9.38;;
19782;SDS011;10051;40.294;-3.754;2023-01-01T04:20:31;18.52;;;8.80;;
19782;SDS011;10051;40.294;-3.754;2023-01-01T04:22:57;18.50;;;7.97;;
19782;SDS011;10051;40.294;-3.754;2023-01-01T04:25:23;21.85;;;7.85;;
19782;SDS011;10051;40.294;-3.754;2023-01-01T04:27:49;21.08;;;7.43;;
19782;SDS011;10051;40.294;-3.754;2023-01-01T04:30:15;19.00;;;8.30;;
19782;SDS011;10051;40.294;-3.754;2023-01-01T04:32:41;22.05;;;8.77;;
19782;SDS011;10051;40.294;-3.754;2023-01-01T04:35:08;23.52;;;8.65;;
19782;SDS011;10051;40.294;-3.754;2023-01-01T04:37:37;24.35;;;8.93;;
19782;SDS011;10051;40.294;-3.754;2023-01-01T04:40:04;19.13;;;8.25;;
19782;SDS011;10051;40.294;-3.754;2023-01-01T04:42:30;20.38;;;8.45;;
19782;SDS011;10051;40.294;-3.754;2023-01-01T04:44:56;19.85;;;8.10;;
19782;SDS011;10051;40.294;-3.754;2023-01-01T04:47:22;20.73;;;8.43;;
19782;SDS011;10051;40.294;-3.754;2023-01-01T04:49:47;20.17;;;7.95;;
19782;SDS011;10051;40.294;-3.754;2023-01-01T04:52:13;18.85;;;8.35;;
19782;SDS011;10051;40.294;-3.754;2023-01-01T04:54:39;19.13;;;7.95;;
19782;SDS011;10051;40.294;-3.754;2023-01-01T04:57:04;21.92;;;8.73;;
19782;SDS011;10051;40.294;-3.754;2023-01-01T04:59:30;19.35;;;7.97;;
19782;SDS011;10051;40.294;-3.754;2023-01-01T05:01:56;26.05;;;8.38;;
19782;SDS011;10051;40.294;-3.754;2023-01-01T05:04:22;22.80;;;7.85;;
19782;SDS011;10051;40.294;-3.754;2023-01-01T05:06:47;17.17;;;7.97;;
19782;SDS011;10051;40.294;-3.754;2023-01-01T05:09:13;20.27;;;7.68;;
19782;SDS011;10051;40.294;-3.754;2023-01-01T05:11:39;21.30;;;7.80;;
19782;SDS011;10051;40.294;-3.754;2023-01-01T05:14:04;16.17;;;7.05;;
19782;SDS011;10051;40.294;-3.754;2023-01-01T05:16:32;20.45;;;7.40;;
19782;SDS011;10051;40.294;-3.754;2023-01-01T05:19:00;17.65;;;7.22;;
19782;SDS011;10051;40.294;-3.754;2023-01-01T05:21:27;23.73;;;7.72;;
19782;SDS011;10051;40.294;-3.754;2023-01-01T05:24:02;18.92;;;7.43;;
19782;SDS011;10051;40.294;-3.754;2023-01-01T05:26:30;16.30;;;6.47;;
19782;SDS011;10051;40.294;-3.754;2023-01-01T05:28:58;15.40;;;6.40;;
19782;SDS011;10051;40.294;-3.754;2023-01-01T05:31:26;17.55;;;5.97;;
19782;SDS011;10051;40.294;-3.754;2023-01-01T05:33:54;20.02;;;6.53;;
19782;SDS011;10051;40.294;-3.754;2023-01-01T05:36:22;14.02;;;6.40;;
19782;SDS011;10051;40.294;-3.754;2023-01-01T05:38:50;15.20;;;6.82;;
19782;SDS011;10051;40.294;-3.754;2023-01-01T05:41:16;20.13;;;7.95;;
19782;SDS011;10051;40.294;-3.754;2023-01-01T05:43:43;18.92;;;8.05;;
19782;SDS011;10051;40.294;-3.754;2023-01-01T05:46:10;23.17;;;8.60;;
19782;SDS011;10051;40.294;-3.754;2023-01-01T05:48:38;19.77;;;8.60;;
19782;SDS011;10051;40.294;-3.754;2023-01-01T05:51:08;21.65;;;8.98;;
19782;SDS011;10051;40.294;-3.754;2023-01-01T05:53:38;18.10;;;8.05;;
19782;SDS011;10051;40.294;-3.754;2023-01-01T05:56:04;15.32;;;6.88;;
19782;SDS011;10051;40.294;-3.754;2023-01-01T05:58:31;22.20;;;7.30;;
19782;SDS011;10051;40.294;-3.754;2023-01-01T06:01:08;15.30;;;6.40;;
19782;SDS011;10051;40.294;-3.754;2023-01-01T06:03:40;14.55;;;6.22;;
19782;SDS011;10051;40.294;-3.754;2023-01-01T06:06:07;14.52;;;6.40;;
19782;SDS011;10051;40.294;-3.754;2023-01-01T06:08:35;17.73;;;6.88;;
19782;SDS011;10051;40.294;-3.754;2023-01-01T06:11:01;15.48;;;6.80;;
19782;SDS011;10051;40.294;-3.754;2023-01-01T06:13:28;17.13;;;7.35;;
19782;SDS011;10051;40.294;-3.754;2023-01-01T06:15:55;16.65;;;7.32;;
19782;SDS011;10051;40.294;-3.754;2023-01-01T06:18:22;17.55;;;7.18;;
19782;SDS011;10051;40.294;-3.754;2023-01-01T06:20:48;16.75;;;6.72;;
19782;SDS011;10051;40.294;-3.754;2023-01-01T06:23:14;18.00;;;7.05;;
19782;SDS011;10051;40.294;-3.754;2023-01-01T06:25:40;16.75;;;7.15;;
19782;SDS011;10051;40.294;-3.754;2023-01-01T06:28:05;15.27;;;6.60;;
19782;SDS011;10051;40.294;-3.754;2023-01-01T06:30:31;15.73;;;6.28;;
19782;SDS011;10051;40.294;-3.754;2023-01-01T06:32:58;15.73;;;6.18;;
19782;SDS011;10051;40.294;-3.754;2023-01-01T06:35:25;18.98;;;6.53;;
19782;SDS011;10051;40.294;-3.754;2023-01-01T06:37:51;17.58;;;6.10;;
19782;SDS011;10051;40.294;-3.754;2023-01-01T06:40:17;17.05;;;5.93;;
19782;SDS011;10051;40.294;-3.754;2023-01-01T06:42:42;12.48;;;5.10;;
19782;SDS011;10051;40.294;-3.754;2023-01-01T06:45:08;12.88;;;5.32;;
19782;SDS011;10051;40.294;-3.754;2023-01-01T06:47:35;11.10;;;4.93;;
19782;SDS011;10051;40.294;-3.754;2023-01-01T06:50:01;13.95;;;4.95;;
19782;SDS011;10051;40.294;-3.754;2023-01-01T06:52:28;15.63;;;5.10;;
19782;SDS011;10051;40.294;-3.754;2023-01-01T06:54:54;11.05;;;4.90;;
19782;SDS011;10051;40.294;-3.754;2023-01-01T06:57:19;12.15;;;4.63;;
19782;SDS011;10051;40.294;-3.754;2023-01-01T06:59:45;11.18;;;4.25;;
19782;SDS011;10051;40.294;-3.754;2023-01-01T07:02:10;12.80;;;4.70;;
19782;SDS011;10051;40.294;-3.754;2023-01-01T07:04:36;14.52;;;5.03;;
19782;SDS011;10051;40.294;-3.754;2023-01-01T07:07:05;20.05;;;5.57;;
19782;SDS011;10051;40.294;-3.754;2023-01-01T07:09:31;12.75;;;5.55;;
19782;SDS011;10051;40.294;-3.754;2023-01-01T07:11:56;15.18;;;5.47;;
19782;SDS011;10051;40.294;-3.754;2023-01-01T07:14:22;13.07;;;5.53;;
19782;SDS011;10051;40.294;-3.754;2023-01-01T07:16:48;15.02;;;5.28;;
19782;SDS011;10051;40.294;-3.754;2023-01-01T07:19:13;10.80;;;5.25;;
19782;SDS011;10051;40.294;-3.754;2023-01-01T07:21:42;16.50;;;6.28;;
19782;SDS011;10051;40.294;-3.754;2023-01-01T07:24:11;15.25;;;6.30;;
19782;SDS011;10051;40.294;-3.754;2023-01-01T07:26:39;15.52;;;5.80;;
19782;SDS011;10051;40.294;-3.754;2023-01-01T07:29:05;15.60;;;5.40;;
19782;SDS011;10051;40.294;-3.754;2023-01-01T07:31:33;15.38;;;5.80;;
19782;SDS011;10051;40.294;-3.754;2023-01-01T07:34:02;18.23;;;6.00;;
19782;SDS011;10051;40.294;-3.754;2023-01-01T07:36:29;10.15;;;4.95;;
19782;SDS011;10051;40.294;-3.754;2023-01-01T07:38:54;15.50;;;5.25;;
19782;SDS011;10051;40.294;-3.754;2023-01-01T07:41:20;15.65;;;5.68;;
19782;SDS011;10051;40.294;-3.754;2023-01-01T07:43:46;14.73;;;4.90;;
19782;SDS011;10051;40.294;-3.754;2023-01-01T07:46:11;15.13;;;5.25;;
19782;SDS011;10051;40.294;-3.754;2023-01-01T07:48:40;12.50;;;5.57;;
19782;SDS011;10051;40.294;-3.754;2023-01-01T07:51:06;15.90;;;5.45;;
19782;SDS011;10051;40.294;-3.754;2023-01-01T07:53:31;13.02;;;5.35;;
19782;SDS011;10051;40.294;-3.754;2023-01-01T07:55:57;16.45;;;4.97;;
19782;SDS011;10051;40.294;-3.754;2023-01-01T07:58:25;16.05;;;5.50;;
19782;SDS011;10051;40.294;-3.754;2023-01-01T08:00:51;11.95;;;4.63;;
19782;SDS011;10051;40.294;-3.754;2023-01-01T08:03:16;12.88;;;5.15;;
19782;SDS011;10051;40.294;-3.754;2023-01-01T08:05:42;14.57;;;5.60;;
19782;SDS011;10051;40.294;-3.754;2023-01-01T08:08:08;16.42;;;5.63;;
19782;SDS011;10051;40.294;-3.754;2023-01-01T08:10:35;12.82;;;5.80;;
19782;SDS011;10051;40.294;-3.754;2023-01-01T08:13:02;15.68;;;5.80;;
19782;SDS011;10051;40.294;-3.754;2023-01-01T08:15:29;17.00;;;5.93;;
19782;SDS011;10051;40.294;-3.754;2023-01-01T08:17:59;15.40;;;6.15;;
19782;SDS011;10051;40.294;-3.754;2023-01-01T08:20:27;16.20;;;6.00;;
19782;SDS011;10051;40.294;-3.754;2023-01-01T08:22:53;14.48;;;5.50;;
19782;SDS011;10051;40.294;-3.754;2023-01-01T08:25:19;14.07;;;5.30;;
19782;SDS011;10051;40.294;-3.754;2023-01-01T08:27:45;16.20;;;5.35;;
19782;SDS011;10051;40.294;-3.754;2023-01-01T08:30:14;13.60;;;5.03;;
19782;SDS011;10051;40.294;-3.754;2023-01-01T08:32:40;13.77;;;5.20;;
19782;SDS011;10051;40.294;-3.754;2023-01-01T08:35:06;12.98;;;5.05;;
19782;SDS011;10051;40.294;-3.754;2023-01-01T08:37:32;14.18;;;5.45;;
19782;SDS011;10051;40.294;-3.754;2023-01-01T08:39:58;13.82;;;4.70;;
19782;SDS011;10051;40.294;-3.754;2023-01-01T08:42:23;13.43;;;4.80;;
19782;SDS011;10051;40.294;-3.754;2023-01-01T08:44:49;14.13;;;5.68;;
19782;SDS011;10051;40.294;-3.754;2023-01-01T08:47:25;16.48;;;5.05;;
19782;SDS011;10051;40.294;-3.754;2023-01-01T08:49:51;11.32;;;4.70;;
19782;SDS011;10051;40.294;-3.754;2023-01-01T08:52:18;15.15;;;5.05;;
19782;SDS011;10051;40.294;-3.754;2023-01-01T08:54:44;12.55;;;5.22;;
19782;SDS011;10051;40.294;-3.754;2023-01-01T08:57:09;13.50;;;5.82;;
19782;SDS011;10051;40.294;-3.754;2023-01-01T08:59:36;16.45;;;5.57;;
19782;SDS011;10051;40.294;-3.754;2023-01-01T09:02:02;11.32;;;4.78;;
19782;SDS011;10051;40.294;-3.754;2023-01-01T09:04:28;11.25;;;4.65;;
19782;SDS011;10051;40.294;-3.754;2023-01-01T09:06:54;12.10;;;4.82;;
19782;SDS011;10051;40.294;-3.754;2023-01-01T09:09:19;12.48;;;5.13;;
19782;SDS011;10051;40.294;-3.754;2023-01-01T09:12:03;12.68;;;4.90;;
19782;SDS011;10051;40.294;-3.754;2023-01-01T09:14:31;14.65;;;5.32;;
19782;SDS011;10051;40.294;-3.754;2023-01-01T09:16:57;15.23;;;5.47;;
19782;SDS011;10051;40.294;-3.754;2023-01-01T09:19:23;15.40;;;5.82;;
19782;SDS011;10051;40.294;-3.754;2023-01-01T09:21:49;15.75;;;5.82;;
19782;SDS011;10051;40.294;-3.754;2023-01-01T09:24:14;14.75;;;5.93;;
19782;SDS011;10051;40.294;-3.754;2023-01-01T09:26:40;15.02;;;6.22;;
19782;SDS011;10051;40.294;-3.754;2023-01-01T09:29:06;13.32;;;5.78;;
19782;SDS011;10051;40.294;-3.754;2023-01-01T09:31:31;15.20;;;5.53;;
19782;SDS011;10051;40.294;-3.754;2023-01-01T09:33:57;13.48;;;5.68;;
19782;SDS011;10051;40.294;-3.754;2023-01-01T09:36:27;13.25;;;4.78;;
19782;SDS011;10051;40.294;-3.754;2023-01-01T09:38:54;14.82;;;4.78;;
19782;SDS011;10051;40.294;-3.754;2023-01-01T09:47:01;12.90;;;5.43;;
19782;SDS011;10051;40.294;-3.754;2023-01-01T09:49:34;14.57;;;5.20;;
19782;SDS011;10051;40.294;-3.754;2023-01-01T09:52:04;16.92;;;5.03;;
19782;SDS011;10051;40.294;-3.754;2023-01-01T09:54:31;12.63;;;5.10;;
19782;SDS011;10051;40.294;-3.754;2023-01-01T09:57:03;15.98;;;4.97;;
19782;SDS011;10051;40.294;-3.754;2023-01-01T09:59:33;16.27;;;5.35;;
19782;SDS011;10051;40.294;-3.754;2023-01-01T10:02:03;11.95;;;4.50;;
19782;SDS011;10051;40.294;-3.754;2023-01-01T10:04:50;11.07;;;4.60;;
19782;SDS011;10051;40.294;-3.754;2023-01-01T10:07:41;13.48;;;5.03;;
19782;SDS011;10051;40.294;-3.754;2023-01-01T10:15:45;14.40;;;5.10;;
19782;SDS011;10051;40.294;-3.754;2023-01-01T10:18:20;15.80;;;6.75;;
19782;SDS011;10051;40.294;-3.754;2023-01-01T10:21:03;16.40;;;6.47;;
19782;SDS011;10051;40.294;-3.754;2023-01-01T10:23:35;16.50;;;5.80;;
19782;SDS011;10051;40.294;-3.754;2023-01-01T10:26:11;13.25;;;4.55;;
19782;SDS011;10051;40.294;-3.754;2023-01-01T10:28:46;11.23;;;4.82;;
19782;SDS011;10051;40.294;-3.754;2023-01-01T10:31:19;12.23;;;5.20;;
19782;SDS011;10051;40.294;-3.754;2023-01-01T10:34:14;13.57;;;5.32;;
19782;SDS011;10051;40.294;-3.754;2023-01-01T10:36:46;11.52;;;5.07;;
19782;SDS011;10051;40.294;-3.754;2023-01-01T10:39:14;15.18;;;6.00;;
19782;SDS011;10051;40.294;-3.754;2023-01-01T10:41:42;15.90;;;6.15;;
19782;SDS011;10051;40.294;-3.754;2023-01-01T10:44:08;13.77;;;5.97;;
19782;SDS011;10051;40.294;-3.754;2023-01-01T10:46:36;14.10;;;6.07;;
19782;SDS011;10051;40.294;-3.754;2023-01-01T10:49:13;14.15;;;5.97;;
19782;SDS011;10051;40.294;-3.754;2023-01-01T10:51:47;12.85;;;5.57;;
19782;SDS011;10051;40.294;-3.754;2023-01-01T10:57:21;10.30;;;5.20;;
19782;SDS011;10051;40.294;-3.754;2023-01-01T11:00:08;10.65;;;5.53;;
19782;SDS011;10051;40.294;-3.754;2023-01-01T11:02:41;16.08;;;5.97;;
19782;SDS011;10051;40.294;-3.754;2023-01-01T11:05:17;16.67;;;6.35;;
19782;SDS011;10051;40.294;-3.754;2023-01-01T11:07:44;17.65;;;8.05;;
19782;SDS011;10051;40.294;-3.754;2023-01-01T11:10:16;16.63;;;7.55;;
19782;SDS011;10051;40.294;-3.754;2023-01-01T11:12:44;16.02;;;7.05;;
19782;SDS011;10051;40.294;-3.754;2023-01-01T11:15:21;17.02;;;6.57;;
19782;SDS011;10051;40.294;-3.754;2023-01-01T11:18:10;17.20;;;6.93;;
19782;SDS011;10051;40.294;-3.754;2023-01-01T11:20:38;16.30;;;7.20;;
19782;SDS011;10051;40.294;-3.754;2023-01-01T11:25:56;14.23;;;6.72;;
19782;SDS011;10051;40.294;-3.754;2023-01-01T11:28:24;13.68;;;6.10;;
19782;SDS011;10051;40.294;-3.754;2023-01-01T11:31:01;15.40;;;6.03;;
19782;SDS011;10051;40.294;-3.754;2023-01-01T11:33:53;10.75;;;4.63;;
19782;SDS011;10051;40.294;-3.754;2023-01-01T11:36:30;11.23;;;5.60;;
19782;SDS011;10051;40.294;-3.754;2023-01-01T11:39:05;16.02;;;6.43;;
19782;SDS011;10051;40.294;-3.754;2023-01-01T11:41:45;12.00;;;5.40;;
19782;SDS011;10051;40.294;-3.754;2023-01-01T11:44:13;15.02;;;5.55;;
19782;SDS011;10051;40.294;-3.754;2023-01-01T11:50:13;11.85;;;4.38;;
19782;SDS011;10051;40.294;-3.754;2023-01-01T11:52:51;8.80;;;4.10;;
19782;SDS011;10051;40.294;-3.754;2023-01-01T11:55:36;9.07;;;3.75;;
19782;SDS011;10051;40.294;-3.754;2023-01-01T12:01:11;9.73;;;3.70;;
19782;SDS011;10051;40.294;-3.754;2023-01-01T12:03:48;7.82;;;2.90;;
19782;SDS011;10051;40.294;-3.754;2023-01-01T12:06:26;7.97;;;3.28;;
19782;SDS011;10051;40.294;-3.754;2023-01-01T12:09:13;12.55;;;2.60;;
19782;SDS011;10051;40.294;-3.754;2023-01-01T12:11:56;6.10;;;2.15;;
19782;SDS011;10051;40.294;-3.754;2023-01-01T12:17:25;7.38;;;2.47;;
19782;SDS011;10051;40.294;-3.754;2023-01-01T12:20:12;6.45;;;2.55;;
19782;SDS011;10051;40.294;-3.754;2023-01-01T12:22:45;6.88;;;2.60;;
19782;SDS011;10051;40.294;-3.754;2023-01-01T12:25:15;5.13;;;2.50;;
19782;SDS011;10051;40.294;-3.754;2023-01-01T12:30:31;8.57;;;2.20;;
19782;SDS011;10051;40.294;-3.754;2023-01-01T12:36:06;8.43;;;2.65;;
19782;SDS011;10051;40.294;-3.754;2023-01-01T12:53:25;6.03;;;2.85;;
19782;SDS011;10051;40.294;-3.754;2023-01-01T12:56:03;8.45;;;2.75;;
19782;SDS011;10051;40.294;-3.754;2023-01-01T12:58:37;11.93;;;4.32;;
19782;SDS011;10051;40.294;-3.754;2023-01-01T13:01:21;11.18;;;3.80;;
19782;SDS011;10051;40.294;-3.754;2023-01-01T13:03:51;10.18;;;3.75;;
19782;SDS011;10051;40.294;-3.754;2023-01-01T13:06:23;11.57;;;3.90;;
19782;SDS011;10051;40.294;-3.754;2023-01-01T13:09:01;8.10;;;2.65;;
19782;SDS011;10051;40.294;-3.754;2023-01-01T13:11:32;6.93;;;3.60;;
19782;SDS011;10051;40.294;-3.754;2023-01-01T13:13:59;8.23;;;4.10;;
19782;SDS011;10051;40.294;-3.754;2023-01-01T13:16:35;7.13;;;3.10;;
19782;SDS011;10051;40.294;-3.754;2023-01-01T13:19:10;4.63;;;2.60;;
19782;SDS011;10051;40.294;-3.754;2023-01-01T13:38:46;4.68;;;2.33;;
19782;SDS011;10051;40.294;-3.754;2023-01-01T13:51:56;6.47;;;1.85;;
19782;SDS011;10051;40.294;-3.754;2023-01-01T14:00:27;6.22;;;1.83;;
19782;SDS011;10051;40.294;-3.754;2023-01-01T14:03:14;5.25;;;1.80;;
19782;SDS011;10051;40.294;-3.754;2023-01-01T14:05:47;4.57;;;1.80;;
19782;SDS011;10051;40.294;-3.754;2023-01-01T14:08:26;5.88;;;2.00;;
19782;SDS011;10051;40.294;-3.754;2023-01-01T14:10:56;6.88;;;1.70;;
19782;SDS011;10051;40.294;-3.754;2023-01-01T14:13:22;5.28;;;1.73;;
19782;SDS011;10051;40.294;-3.754;2023-01-01T14:18:17;6.57;;;2.00;;
19782;SDS011;10051;40.294;-3.754;2023-01-01T14:20:48;3.60;;;1.80;;
19782;SDS011;10051;40.294;-3.754;2023-01-01T14:23:19;3.22;;;1.98;;
19782;SDS011;10051;40.294;-3.754;2023-01-01T14:25:54;6.68;;;2.17;;
19782;SDS011;10051;40.294;-3.754;2023-01-01T14:28:28;4.35;;;2.08;;
19782;SDS011;10051;40.294;-3.754;2023-01-01T14:30:55;9.80;;;2.00;;
19782;SDS011;10051;40.294;-3.754;2023-01-01T14:33:24;4.25;;;1.95;;
19782;SDS011;10051;40.294;-3.754;2023-01-01T14:35:53;7.15;;;1.90;;
19782;SDS011;10051;40.294;-3.754;2023-01-01T14:38:27;6.63;;;1.83;;
19782;SDS011;10051;40.294;-3.754;2023-01-01T14:41:03;12.82;;;2.10;;
19782;SDS011;10051;40.294;-3.754;2023-01-01T14:43:37;5.18;;;2.17;;
19782;SDS011;10051;40.294;-3.754;2023-01-01T14:46:04;6.05;;;1.90;;
19782;SDS011;10051;40.294;-3.754;2023-01-01T14:48:31;4.88;;;2.17;;
19782;SDS011;10051;40.294;-3.754;2023-01-01T14:50:58;14.48;;;9.80;;
19782;SDS011;10051;40.294;-3.754;2023-01-01T14:53:27;10.13;;;3.35;;
19782;SDS011;10051;40.294;-3.754;2023-01-01T14:55:56;6.50;;;2.35;;
19782;SDS011;10051;40.294;-3.754;2023-01-01T14:58:22;6.95;;;2.25;;
19782;SDS011;10051;40.294;-3.754;2023-01-01T15:00:50;5.47;;;2.38;;
19782;SDS011;10051;40.294;-3.754;2023-01-01T15:03:18;8.60;;;2.90;;
19782;SDS011;10051;40.294;-3.754;2023-01-01T15:05:46;5.72;;;2.80;;
19782;SDS011;10051;40.294;-3.754;2023-01-01T15:08:25;6.45;;;2.70;;
19782;SDS011;10051;40.294;-3.754;2023-01-01T15:10:51;5.43;;;3.00;;
19782;SDS011;10051;40.294;-3.754;2023-01-01T15:13:20;8.18;;;2.90;;
19782;SDS011;10051;40.294;-3.754;2023-01-01T15:15:48;9.50;;;3.20;;
19782;SDS011;10051;40.294;-3.754;2023-01-01T15:21:53;6.22;;;2.25;;
19782;SDS011;10051;40.294;-3.754;2023-01-01T15:24:08;5.95;;;2.60;;
19782;SDS011;10051;40.294;-3.754;2023-01-01T15:26:47;6.78;;;2.60;;
19782;SDS011;10051;40.294;-3.754;2023-01-01T15:29:25;6.78;;;2.45;;
19782;SDS011;10051;40.294;-3.754;2023-01-01T15:32:06;9.90;;;2.95;;
19782;SDS011;10051;40.294;-3.754;2023-01-01T15:34:40;7.88;;;2.80;;
19782;SDS011;10051;40.294;-3.754;2023-01-01T15:37:16;9.20;;;2.97;;
19782;SDS011;10051;40.294;-3.754;2023-01-01T15:39:50;7.88;;;3.13;;
19782;SDS011;10051;40.294;-3.754;2023-01-01T15:45:06;7.63;;;3.38;;
19782;SDS011;10051;40.294;-3.754;2023-01-01T15:48:35;8.35;;;3.17;;
19782;SDS011;10051;40.294;-3.754;2023-01-01T15:53:19;5.40;;;3.00;;
19782;SDS011;10051;40.294;-3.754;2023-01-01T15:56:00;6.45;;;3.30;;
19782;SDS011;10051;40.294;-3.754;2023-01-01T15:58:33;7.57;;;2.92;;
19782;SDS011;10051;40.294;-3.754;2023-01-01T16:01:24;8.23;;;3.10;;
19782;SDS011;10051;40.294;-3.754;2023-01-01T16:03:50;7.57;;;3.10;;
19782;SDS011;10051;40.294;-3.754;2023-01-01T16:06:20;6.93;;;3.30;;
19782;SDS011;10051;40.294;-3.754;2023-01-01T16:08:47;7.63;;;3.95;;
19782;SDS011;10051;40.294;-3.754;2023-01-01T16:11:12;8.65;;;3.80;;
19782;SDS011;10051;40.294;-3.754;2023-01-01T16:13:38;13.82;;;4.32;;
19782;SDS011;10051;40.294;-3.754;2023-01-01T16:16:17;10.95;;;3.30;;
19782;SDS011;10051;40.294;-3.754;2023-01-01T16:18:44;8.10;;;3.80;;
19782;SDS011;10051;40.294;-3.754;2023-01-01T16:21:10;8.38;;;3.58;;
19782;SDS011;10051;40.294;-3.754;2023-01-01T16:23:36;9.32;;;3.30;;
19782;SDS011;10051;40.294;-3.754;2023-01-01T16:26:01;8.07;;;3.38;;
19782;SDS011;10051;40.294;-3.754;2023-01-01T16:28:27;6.03;;;2.72;;
19782;SDS011;10051;40.294;-3.754;2023-01-01T16:30:52;6.20;;;3.20;;
19782;SDS011;10051;40.294;-3.754;2023-01-01T16:33:19;8.93;;;3.33;;
19782;SDS011;10051;40.294;-3.754;2023-01-01T16:35:47;10.43;;;3.38;;
19782;SDS011;10051;40.294;-3.754;2023-01-01T16:38:12;8.43;;;3.60;;
19782;SDS011;10051;40.294;-3.754;2023-01-01T16:40:40;8.63;;;3.47;;
19782;SDS011;10051;40.294;-3.754;2023-01-01T16:43:07;14.52;;;4.30;;
19782;SDS011;10051;40.294;-3.754;2023-01-01T16:45:41;15.73;;;6.22;;
19782;SDS011;10051;40.294;-3.754;2023-01-01T16:48:07;13.93;;;6.18;;
19782;SDS011;10051;40.294;-3.754;2023-01-01T16:50:33;11.88;;;5.40;;